Vancouver, WA

1:40 AM PST on December 21, 2014 (GMT -0800)
Pearson | Change Station
CLOSE
Current Station
Airport
Location: Vancouver,
Elevation: 26 ft
Nearby Weather Stations
Active Advisory: Areal Flood Watch Active Notice: Public Information Statement

Elev 26 ft 45.62 °N, 122.65 °W | Updated 47 minutes ago

Overcast
Overcast
57 °F
Feels Like 57 °F
N
6
Wind Variable Wind from West

Today
High -- | Low -- °F
--% Chance of Precip.
Yesterday
High -- | Low -- °F
Precip. -- in
7:48 AM 4:29 PM
Waning Crescent, 1% visible
Pressure 29.77 in
Visibility 10.0 miles
Clouds Few 3400 ft
Scattered Clouds 8000 ft
Overcast 10000 ft
Dew Point 52 °F
Humidity 83%
Rainfall 0.00 in
Snow Depth Not available.
UV 0 out of 12
Pollen .50 out of 12
Air Quality Not available.
Flu Activity Not available.
METAR KVUO 210853Z AUTO 26005KT 10SM FEW034 SCT080 OVC100 14/11 A2977 RMK AO2 RAE12 SLP079 P0000 60002 T01390111 53034

More Conditions Fewer Conditions

Pressure 29.77 in
Visibility 10.0 miles
Clouds Few 3400 ft
Scattered Clouds 8000 ft
Overcast 10000 ft
Dew Point 52 °F
Humidity 83%
Rainfall 0.00 in
Snow Depth Not available.
UV 0 out of 12
Pollen .50 out of 12
Air Quality Not available.
Flu Activity Not available.
METAR KVUO 210853Z AUTO 26005KT 10SM FEW034 SCT080 OVC100 14/11 A2977 RMK AO2 RAE12 SLP079 P0000 60002 T01390111 53034

More Conditions Fewer Conditions

10-Day Weather Forecast

Almanac

Astronomy

Dec. 21, 2014 Rise Set
Actual Time
Civil Twilight
Nautical Twilight
Astronomical Twilight
Moon
Length of Visible Light
Length of Day
Tomorrow will be .
, % of the Moon is Illuminated

Today's Extremes

State Highs State Lows

Community

WunderPhotos

Upload Photos

1,779,364 photos uploaded!

WunderBlogs® & News

Nearby

Air Quality

  Air Quality AQ Index Pollutant
Not available.

Snow Depth

Station Depth Elevation

Earthquake Activity

City Distance Mag. Time & Date
Minimum magnitude displayed is 2.5.

Coastal Water Temperatures

Place Temperature

Nearby Weather Stations